createdAt,value
2017-09-10T00:01:13.467Z,5.00
2017-09-10T00:03:42.457Z,4.80
2017-09-10T00:06:11.417Z,4.30
2017-09-10T00:08:40.352Z,4.80
2017-09-10T00:11:09.316Z,5.40
2017-09-10T00:13:38.287Z,5.60
2017-09-10T00:16:07.253Z,5.30
2017-09-10T00:18:36.211Z,6.17
2017-09-10T00:21:05.219Z,5.90
2017-09-10T00:23:34.177Z,6.20
2017-09-10T00:26:03.160Z,6.10
2017-09-10T00:28:33.001Z,6.67
2017-09-10T00:31:02.001Z,6.33
2017-09-10T00:33:31.797Z,6.50
2017-09-10T00:36:00.760Z,6.43
2017-09-10T00:38:30.291Z,6.10
2017-09-10T00:40:59.670Z,7.17
2017-09-10T00:43:28.633Z,7.00
2017-09-10T00:45:57.597Z,6.30
2017-09-10T00:48:26.580Z,6.43
2017-09-10T00:50:55.544Z,6.70
2017-09-10T00:53:24.507Z,6.73
2017-09-10T00:55:53.489Z,6.20
2017-09-10T00:58:22.472Z,6.90
2017-09-10T01:00:52.214Z,6.73
2017-09-10T01:03:21.178Z,7.27
2017-09-10T01:05:50.916Z,6.30
2017-09-10T01:08:19.873Z,6.23
2017-09-10T01:10:49.615Z,7.23
2017-09-10T01:13:18.597Z,6.73
2017-09-10T01:15:47.719Z,6.30
2017-09-10T01:18:16.685Z,7.30
2017-09-10T01:20:45.639Z,7.13
2017-09-10T01:23:15.407Z,7.17
2017-09-10T01:25:44.446Z,7.27
2017-09-10T01:28:13.436Z,7.27
2017-09-10T01:30:43.185Z,8.13
2017-09-10T01:33:12.155Z,6.97
2017-09-10T01:35:42.063Z,7.80
2017-09-10T01:38:11.777Z,7.87
2017-09-10T01:40:40.741Z,7.43
2017-09-10T01:43:09.693Z,6.40
2017-09-10T01:45:38.648Z,7.90
2017-09-10T01:48:07.653Z,6.87
2017-09-10T01:50:37.001Z,7.07
2017-09-10T01:53:05.976Z,8.37
2017-09-10T01:55:34.933Z,7.00
2017-09-10T01:58:03.912Z,7.07
2017-09-10T02:00:32.862Z,7.03
2017-09-10T02:03:01.839Z,7.10
2017-09-10T02:05:30.789Z,6.87
2017-09-10T02:08:00.574Z,6.40
2017-09-10T02:10:29.599Z,6.33
2017-09-10T02:12:59.344Z,7.50
2017-09-10T02:15:28.835Z,6.70
2017-09-10T02:17:57.859Z,6.70
2017-09-10T02:20:26.979Z,7.07
2017-09-10T02:22:55.978Z,6.93
2017-09-10T02:25:25.696Z,7.13
2017-09-10T02:27:55.435Z,7.30
2017-09-10T02:30:24.429Z,7.30
2017-09-10T02:32:53.783Z,8.10
2017-09-10T02:35:23.544Z,7.20
2017-09-10T02:37:52.499Z,6.80
2017-09-10T02:40:22.229Z,6.23
2017-09-10T02:42:51.596Z,6.60
2017-09-10T02:45:21.310Z,6.70
2017-09-10T02:47:51.037Z,6.40
2017-09-10T02:50:19.994Z,5.87
2017-09-10T02:52:49.752Z,6.40
2017-09-10T02:55:18.745Z,7.60
2017-09-10T02:57:48.116Z,6.50
2017-09-10T03:00:17.840Z,7.33
2017-09-10T03:02:46.825Z,6.30
2017-09-10T03:05:16.556Z,8.00
2017-09-10T03:07:45.521Z,6.23
2017-09-10T03:10:15.281Z,6.30
2017-09-10T03:12:44.231Z,6.60
2017-09-10T03:15:13.982Z,7.63
2017-09-10T03:17:42.921Z,6.90
2017-09-10T03:20:12.302Z,7.43
2017-09-10T03:22:41.232Z,8.00
2017-09-10T03:25:10.244Z,7.23
2017-09-10T03:27:39.220Z,6.80
2017-09-10T03:30:08.988Z,7.77
2017-09-10T03:32:38.049Z,6.70
2017-09-10T03:35:07.264Z,6.90
2017-09-10T03:37:36.220Z,6.60
2017-09-10T03:40:05.639Z,7.77
2017-09-10T03:42:34.565Z,6.73
2017-09-10T03:45:03.540Z,8.13
2017-09-10T03:47:32.477Z,6.60
2017-09-10T03:50:02.189Z,6.10
2017-09-10T03:52:31.158Z,7.57
2017-09-10T03:55:00.141Z,7.80
2017-09-10T03:57:29.096Z,7.90
2017-09-10T03:59:58.042Z,7.50
2017-09-10T04:02:27.424Z,7.47
2017-09-10T04:04:56.504Z,8.10
2017-09-10T04:07:25.472Z,8.30
2017-09-10T04:09:54.418Z,8.40
2017-09-10T04:12:23.388Z,8.93
2017-09-10T04:14:52.793Z,10.50
2017-09-10T04:17:21.792Z,13.73
2017-09-10T04:19:51.526Z,13.77
2017-09-10T04:22:20.507Z,12.60
2017-09-10T04:24:50.291Z,12.13
2017-09-10T04:27:19.263Z,13.10
2017-09-10T04:29:48.215Z,13.57
2017-09-10T04:32:17.700Z,13.10
2017-09-10T04:34:46.664Z,15.10
2017-09-10T04:37:16.033Z,13.47
2017-09-10T04:39:44.995Z,15.00
2017-09-10T04:42:14.028Z,13.60
2017-09-10T04:44:42.985Z,13.47
2017-09-10T04:47:11.974Z,13.27
2017-09-10T04:49:40.956Z,12.47
2017-09-10T04:52:09.933Z,11.63
2017-09-10T04:54:39.673Z,12.20
2017-09-10T04:57:08.656Z,12.30
2017-09-10T04:59:37.634Z,13.63
2017-09-10T05:02:06.668Z,12.87
2017-09-10T05:04:35.621Z,12.77
2017-09-10T05:07:05.367Z,12.73
2017-09-10T05:09:34.347Z,12.20
2017-09-10T05:12:03.316Z,12.77
2017-09-10T05:14:32.675Z,13.63
2017-09-10T05:17:01.673Z,14.10
2017-09-10T05:19:31.436Z,14.73
2017-09-10T05:22:00.410Z,13.40
2017-09-10T05:24:29.405Z,12.60
2017-09-10T05:26:58.412Z,14.23
2017-09-10T05:29:27.379Z,14.47
2017-09-10T05:31:56.356Z,15.13
2017-09-10T05:34:25.345Z,14.17
2017-09-10T05:36:54.323Z,14.47
2017-09-10T05:39:24.065Z,14.77
2017-09-10T05:41:53.792Z,15.40
2017-09-10T05:44:22.802Z,16.03
2017-09-10T05:46:51.865Z,16.07
2017-09-10T05:49:20.840Z,15.67
2017-09-10T05:51:49.830Z,15.30
2017-09-10T05:54:19.608Z,15.90
2017-09-10T05:56:48.592Z,16.13
2017-09-10T05:59:17.981Z,17.50
2017-09-10T06:01:47.454Z,16.67
2017-09-10T06:04:16.527Z,17.20
2017-09-10T06:06:46.348Z,15.97
2017-09-10T06:09:16.281Z,16.40
2017-09-10T06:11:45.236Z,16.07
2017-09-10T06:14:15.017Z,15.87
2017-09-10T06:16:44.010Z,16.93
2017-09-10T06:19:12.986Z,17.80
2017-09-10T06:21:42.771Z,15.87
2017-09-10T06:24:11.731Z,17.50
2017-09-10T06:26:41.601Z,15.17
2017-09-10T06:29:10.685Z,15.57
2017-09-10T06:31:40.127Z,16.17
2017-09-10T06:34:09.148Z,16.80
2017-09-10T06:36:38.214Z,16.30
2017-09-10T06:39:08.348Z,15.60
2017-09-10T06:41:37.338Z,17.00
2017-09-10T06:44:06.296Z,15.60
2017-09-10T06:46:36.175Z,17.70
2017-09-10T06:49:05.924Z,15.27
2017-09-10T06:51:34.945Z,16.93
2017-09-10T06:54:04.791Z,16.67
2017-09-10T06:56:33.789Z,17.07
2017-09-10T06:59:03.505Z,17.40
2017-09-10T07:01:33.244Z,19.40
2017-09-10T07:04:02.395Z,18.47
2017-09-10T07:06:31.808Z,18.57
2017-09-10T07:09:01.683Z,18.27
2017-09-10T07:11:32.039Z,18.90
2017-09-10T07:14:01.798Z,19.60
2017-09-10T07:16:31.541Z,21.17
2017-09-10T07:19:00.563Z,19.23
2017-09-10T07:21:29.555Z,20.50
2017-09-10T07:23:58.613Z,21.13
2017-09-10T07:26:28.348Z,20.80
2017-09-10T07:28:57.355Z,18.93
2017-09-10T07:31:26.434Z,17.43
2017-09-10T07:33:56.448Z,18.70
2017-09-10T07:36:26.201Z,19.57
2017-09-10T07:38:56.003Z,17.73
2017-09-10T07:41:25.124Z,18.83
2017-09-10T07:43:54.855Z,19.13
2017-09-10T07:46:24.630Z,19.43
2017-09-10T07:48:53.630Z,18.90
2017-09-10T07:51:22.636Z,17.00
2017-09-10T07:53:51.780Z,19.87
2017-09-10T07:56:21.692Z,18.37
2017-09-10T07:58:50.716Z,18.13
2017-09-10T08:01:19.700Z,17.80
2017-09-10T08:03:48.789Z,18.50
2017-09-10T08:06:17.867Z,18.07
2017-09-10T08:08:47.769Z,17.47
2017-09-10T08:11:16.748Z,18.60
2017-09-10T08:13:46.502Z,20.53
2017-09-10T08:16:16.016Z,19.57
2017-09-10T08:18:45.016Z,19.53
2017-09-10T08:21:14.757Z,20.70
2017-09-10T08:23:44.613Z,20.73
2017-09-10T08:26:13.646Z,22.07
2017-09-10T08:28:42.666Z,20.10
2017-09-10T08:31:12.427Z,20.27
2017-09-10T08:33:41.376Z,20.27
2017-09-10T08:36:10.387Z,20.67
2017-09-10T08:38:39.343Z,20.70
2017-09-10T08:41:08.732Z,21.60
2017-09-10T08:43:38.525Z,19.70
2017-09-10T08:46:08.496Z,19.07
2017-09-10T08:48:38.430Z,19.57
2017-09-10T08:51:08.250Z,19.80
2017-09-10T08:53:37.393Z,22.30
2017-09-10T08:56:06.498Z,22.87
2017-09-10T08:58:36.354Z,22.00
2017-09-10T09:01:05.811Z,20.40
2017-09-10T09:03:35.557Z,21.30
2017-09-10T09:06:05.226Z,22.20
2017-09-10T09:08:34.957Z,21.30
2017-09-10T09:11:04.568Z,19.70
2017-09-10T09:13:33.616Z,19.07
2017-09-10T09:16:02.643Z,23.30
2017-09-10T09:18:31.632Z,21.33
2017-09-10T09:21:02.184Z,18.80
2017-09-10T09:23:31.179Z,18.97
2017-09-10T09:26:00.538Z,17.33
2017-09-10T09:28:29.939Z,16.77
2017-09-10T09:30:58.911Z,16.27
2017-09-10T09:33:27.899Z,17.40
2017-09-10T09:35:56.866Z,16.40
2017-09-10T09:38:26.356Z,17.77
2017-09-10T09:40:56.653Z,16.97
2017-09-10T09:43:26.519Z,16.53
2017-09-10T09:45:55.613Z,15.37
2017-09-10T09:48:25.494Z,14.20
2017-09-10T09:50:54.575Z,15.63
2017-09-10T09:53:24.349Z,14.43
2017-09-10T09:55:53.372Z,14.10
2017-09-10T09:58:22.396Z,11.97
2017-09-10T10:00:51.405Z,12.10
2017-09-10T10:03:20.525Z,12.20
2017-09-10T10:05:49.534Z,11.30
2017-09-10T10:08:18.551Z,11.63
2017-09-10T10:10:47.529Z,9.93
2017-09-10T10:13:16.622Z,10.43
2017-09-10T10:15:46.346Z,9.00
2017-09-10T10:18:15.857Z,9.33
2017-09-10T10:20:45.589Z,7.90
2017-09-10T10:23:15.362Z,6.50
2017-09-10T10:25:44.320Z,5.30
2017-09-10T10:28:14.786Z,5.10
2017-09-10T10:30:43.796Z,4.80
2017-09-10T10:33:13.647Z,4.57
2017-09-10T10:35:43.394Z,3.93
2017-09-10T10:38:12.801Z,4.73
2017-09-10T10:40:41.756Z,3.70
2017-09-10T10:43:10.825Z,4.80
2017-09-10T10:45:39.889Z,4.80
2017-09-10T10:48:08.985Z,4.50
2017-09-10T10:50:37.994Z,3.60
2017-09-10T10:53:07.402Z,3.43
2017-09-10T10:55:37.020Z,3.70
2017-09-10T10:58:06.491Z,3.33
2017-09-10T11:00:36.207Z,3.27
2017-09-10T11:03:05.320Z,3.80
2017-09-10T11:05:34.740Z,3.30
2017-09-10T11:08:03.740Z,4.00
2017-09-10T11:10:33.087Z,3.27
2017-09-10T11:13:02.905Z,2.90
2017-09-10T11:15:31.933Z,2.60
2017-09-10T11:18:00.987Z,3.10
2017-09-10T11:20:30.868Z,2.80
2017-09-10T11:23:00.739Z,2.37
2017-09-10T11:25:30.039Z,1.80
2017-09-10T11:27:59.153Z,2.03
2017-09-10T11:30:28.125Z,2.10
2017-09-10T11:32:57.454Z,1.90
2017-09-10T11:35:26.474Z,2.17
2017-09-10T11:37:56.305Z,2.33
2017-09-10T11:40:25.301Z,2.20
2017-09-10T11:42:54.760Z,2.37
2017-09-10T11:45:24.768Z,2.07
2017-09-10T11:47:54.008Z,1.90
2017-09-10T11:50:23.016Z,1.20
2017-09-10T11:52:51.972Z,1.07
2017-09-10T11:55:21.761Z,2.00
2017-09-10T11:57:50.721Z,0.80
2017-09-10T12:00:19.686Z,1.40
2017-09-10T12:02:48.650Z,1.23
2017-09-10T12:05:18.417Z,1.20
2017-09-10T12:07:47.760Z,1.13
2017-09-10T12:10:17.498Z,1.33
2017-09-10T12:12:46.457Z,1.10
2017-09-10T12:15:16.196Z,1.40
2017-09-10T12:17:45.965Z,1.27
2017-09-10T12:20:14.952Z,0.97
2017-09-10T12:22:43.883Z,0.90
2017-09-10T12:25:12.858Z,1.17
2017-09-10T12:27:42.665Z,1.00
2017-09-10T12:30:12.050Z,1.47
2017-09-10T12:32:41.097Z,0.90
2017-09-10T12:35:10.060Z,0.93
2017-09-10T12:37:39.788Z,1.00
2017-09-10T12:40:08.768Z,1.20
2017-09-10T12:42:37.703Z,1.03
2017-09-10T12:45:06.685Z,1.10
2017-09-10T12:47:35.665Z,0.93
2017-09-10T12:50:04.658Z,1.13
2017-09-10T12:52:34.356Z,1.17
2017-09-10T12:55:03.338Z,1.00
2017-09-10T12:57:32.290Z,0.70
2017-09-10T13:00:01.266Z,0.90
2017-09-10T13:02:30.229Z,0.80
2017-09-10T13:04:59.968Z,0.90
2017-09-10T13:07:28.926Z,1.00
2017-09-10T13:09:57.986Z,2.10
2017-09-10T13:12:26.924Z,1.40
2017-09-10T13:14:56.704Z,0.83
2017-09-10T13:17:25.763Z,1.03
2017-09-10T13:19:54.746Z,0.80
2017-09-10T13:22:23.696Z,0.87
2017-09-10T13:24:52.709Z,1.37
2017-09-10T13:27:21.755Z,0.90
2017-09-10T13:29:50.730Z,0.90
2017-09-10T13:32:19.702Z,0.90
2017-09-10T13:34:49.153Z,0.97
2017-09-10T13:37:18.861Z,0.97
2017-09-10T13:39:47.841Z,0.80
2017-09-10T13:42:17.248Z,0.90
2017-09-10T13:44:46.217Z,1.10
2017-09-10T13:47:15.199Z,1.00
2017-09-10T13:49:44.172Z,0.80
2017-09-10T13:52:13.902Z,0.73
2017-09-10T13:54:42.892Z,0.93
2017-09-10T13:57:11.833Z,1.10
2017-09-10T13:59:40.792Z,0.60
2017-09-10T14:02:10.540Z,0.90
2017-09-10T14:04:39.500Z,0.87
2017-09-10T14:07:08.476Z,0.97
2017-09-10T14:09:37.445Z,0.60
2017-09-10T14:12:06.417Z,1.13
2017-09-10T14:14:35.749Z,0.90
2017-09-10T14:17:04.736Z,0.70
2017-09-10T14:19:34.458Z,0.90
2017-09-10T14:22:03.452Z,0.90
2017-09-10T14:24:32.431Z,0.90
2017-09-10T14:27:01.400Z,1.00
2017-09-10T14:29:30.397Z,0.90
2017-09-10T14:32:00.393Z,0.73
2017-09-10T14:34:29.368Z,0.80
2017-09-10T14:36:58.345Z,0.60
2017-09-10T14:39:28.057Z,0.73
2017-09-10T14:41:57.792Z,0.63
2017-09-10T14:44:26.777Z,0.93
2017-09-10T14:46:55.765Z,1.13
2017-09-10T14:49:25.520Z,0.87
2017-09-10T14:51:54.505Z,0.80
2017-09-10T14:54:24.184Z,1.10
2017-09-10T14:56:53.178Z,0.90
2017-09-10T14:59:22.757Z,0.90
2017-09-10T15:01:51.752Z,1.37
2017-09-10T15:04:20.809Z,1.30
2017-09-10T15:06:49.870Z,0.60
2017-09-10T15:09:19.100Z,1.07
2017-09-10T15:11:48.125Z,1.10
2017-09-10T15:14:17.481Z,0.70
2017-09-10T15:16:46.483Z,0.90
2017-09-10T15:19:15.488Z,0.87
2017-09-10T15:21:45.254Z,1.00
2017-09-10T15:24:14.628Z,0.60
2017-09-10T15:26:44.423Z,0.87
2017-09-10T15:29:14.234Z,1.00
2017-09-10T15:31:43.210Z,1.07
2017-09-10T15:34:12.334Z,0.93
2017-09-10T15:36:41.330Z,1.27
2017-09-10T15:39:10.411Z,1.10
2017-09-10T15:41:39.377Z,1.20
2017-09-10T15:44:08.432Z,1.07
2017-09-10T15:46:38.321Z,1.20
2017-09-10T15:49:08.084Z,1.20
2017-09-10T15:51:37.070Z,1.13
2017-09-10T15:54:06.801Z,1.07
2017-09-10T15:56:36.579Z,0.93
2017-09-10T15:59:05.547Z,1.10
2017-09-10T16:01:34.642Z,1.30
2017-09-10T16:04:04.542Z,1.03
2017-09-10T16:06:33.516Z,1.30
2017-09-10T16:09:02.561Z,1.30
2017-09-10T16:11:31.559Z,1.33
2017-09-10T16:14:00.562Z,0.80
2017-09-10T16:16:29.553Z,1.20
2017-09-10T16:18:58.608Z,1.00
2017-09-10T16:21:27.658Z,0.90
2017-09-10T16:23:56.733Z,0.83
2017-09-10T16:26:28.102Z,1.20
2017-09-10T16:28:57.126Z,1.07
2017-09-10T16:31:26.963Z,1.20
2017-09-10T16:33:56.823Z,1.57
2017-09-10T16:36:26.525Z,1.10
2017-09-10T16:38:56.277Z,0.97
2017-09-10T16:41:26.353Z,1.00
2017-09-10T16:43:55.324Z,0.80
2017-09-10T16:46:24.473Z,1.10
2017-09-10T16:48:53.499Z,0.97
2017-09-10T16:51:22.481Z,0.97
2017-09-10T16:53:51.486Z,0.90
2017-09-10T16:56:20.461Z,0.97
2017-09-10T16:58:50.399Z,1.10
2017-09-10T17:01:19.371Z,0.97
2017-09-10T17:03:48.340Z,1.40
2017-09-10T17:06:17.344Z,0.90
2017-09-10T17:08:47.165Z,1.33
2017-09-10T17:11:16.977Z,1.43
2017-09-10T17:13:45.925Z,1.20
2017-09-10T17:16:14.956Z,0.90
2017-09-10T17:18:43.887Z,0.90
2017-09-10T17:21:12.844Z,1.00
2017-09-10T17:23:41.837Z,1.10
2017-09-10T17:26:11.011Z,1.07
2017-09-10T17:28:39.994Z,0.80
2017-09-10T17:31:08.986Z,1.10
2017-09-10T17:33:37.966Z,1.00
2017-09-10T17:36:07.020Z,1.03
2017-09-10T17:38:36.104Z,0.97
2017-09-10T17:41:05.080Z,1.30
2017-09-10T17:43:34.270Z,1.20
2017-09-10T17:46:04.018Z,0.90
2017-09-10T17:48:33.085Z,1.10
2017-09-10T17:51:02.049Z,1.03
2017-09-10T17:53:31.070Z,1.13
2017-09-10T17:56:00.806Z,1.13
2017-09-10T17:58:30.238Z,1.13
2017-09-10T18:00:59.597Z,1.10
2017-09-10T18:03:28.540Z,0.87
2017-09-10T18:05:57.530Z,1.23
2017-09-10T18:08:26.490Z,1.40
2017-09-10T18:10:55.532Z,1.33
2017-09-10T18:13:24.466Z,1.13
2017-09-10T18:15:53.552Z,1.30
2017-09-10T18:18:22.558Z,1.30
2017-09-10T18:20:51.571Z,1.40
2017-09-10T18:23:21.414Z,1.50
2017-09-10T18:25:51.475Z,1.80
2017-09-10T18:28:21.038Z,1.60
2017-09-10T18:30:50.903Z,1.40
2017-09-10T18:33:19.866Z,1.70
2017-09-10T18:35:48.839Z,1.17
2017-09-10T18:38:18.664Z,1.13
2017-09-10T18:40:48.371Z,1.37
2017-09-10T18:43:17.374Z,1.33
2017-09-10T18:45:46.359Z,1.23
2017-09-10T18:48:16.130Z,1.50
2017-09-10T18:50:45.529Z,1.10
2017-09-10T18:53:15.326Z,1.50
2017-09-10T18:55:44.311Z,1.27
2017-09-10T18:58:13.402Z,1.30
2017-09-10T19:00:42.440Z,1.30
2017-09-10T19:03:11.461Z,1.53
2017-09-10T19:05:40.463Z,1.53
2017-09-10T19:08:09.520Z,1.57
2017-09-10T19:10:39.331Z,1.83
2017-09-10T19:13:08.321Z,1.67
2017-09-10T19:15:38.075Z,1.17
2017-09-10T19:18:07.745Z,1.40
2017-09-10T19:20:37.525Z,1.23
2017-09-10T19:23:06.498Z,1.50
2017-09-10T19:25:35.554Z,1.80
2017-09-10T19:28:05.296Z,1.40
2017-09-10T19:30:34.301Z,1.33
2017-09-10T19:33:04.053Z,1.63
2017-09-10T19:35:33.843Z,1.60
2017-09-10T19:38:02.829Z,1.63
2017-09-10T19:40:31.836Z,1.60
2017-09-10T19:43:00.856Z,1.77
2017-09-10T19:45:30.272Z,1.50
2017-09-10T19:47:59.686Z,2.13
2017-09-10T19:50:28.690Z,2.00
2017-09-10T19:52:57.697Z,1.67
2017-09-10T19:55:26.669Z,1.77
2017-09-10T19:57:55.647Z,1.60
2017-09-10T20:00:24.638Z,1.67
2017-09-10T20:02:53.653Z,1.80
2017-09-10T20:05:23.492Z,1.90
2017-09-10T20:07:52.446Z,1.67
2017-09-10T20:10:21.417Z,2.03
2017-09-10T20:12:50.513Z,1.80
2017-09-10T20:15:19.855Z,2.10
2017-09-10T20:17:48.844Z,1.80
2017-09-10T20:20:17.832Z,2.50
2017-09-10T20:22:46.864Z,1.90
2017-09-10T20:25:15.850Z,2.50
2017-09-10T20:27:44.799Z,2.00
2017-09-10T20:30:13.775Z,2.40
2017-09-10T20:32:42.737Z,2.30
2017-09-10T20:35:12.482Z,2.00
2017-09-10T20:37:41.832Z,2.27
2017-09-10T20:40:11.277Z,1.50
2017-09-10T20:42:40.273Z,1.77
2017-09-10T20:45:09.217Z,1.60
2017-09-10T20:47:38.961Z,1.20
2017-09-10T20:50:08.009Z,1.50
2017-09-10T20:52:36.971Z,1.60
2017-09-10T20:55:05.935Z,1.60
2017-09-10T20:57:34.977Z,1.70
2017-09-10T21:00:03.934Z,1.40
2017-09-10T21:02:32.933Z,0.90
2017-09-10T21:05:01.898Z,1.23
2017-09-10T21:07:30.872Z,1.37
2017-09-10T21:10:00.596Z,1.37
2017-09-10T21:12:29.580Z,1.33
2017-09-10T21:14:59.325Z,1.50
2017-09-10T21:17:28.601Z,1.37
2017-09-10T21:19:57.585Z,1.20
2017-09-10T21:22:28.202Z,1.40
2017-09-10T21:24:57.173Z,1.27
2017-09-10T21:27:26.114Z,1.67
2017-09-10T21:29:56.308Z,1.70
2017-09-10T21:32:26.021Z,1.70
2017-09-10T21:34:55.748Z,1.77
2017-09-10T21:37:24.721Z,1.73
2017-09-10T21:39:54.516Z,1.33
2017-09-10T21:42:23.484Z,1.53
2017-09-10T21:44:52.545Z,1.57
2017-09-10T21:47:22.241Z,1.87
2017-09-10T21:49:51.619Z,1.53
2017-09-10T21:52:21.350Z,1.50
2017-09-10T21:54:50.785Z,1.40
2017-09-10T21:57:19.740Z,1.80
2017-09-10T21:59:48.717Z,1.47
2017-09-10T22:02:18.488Z,1.80
2017-09-10T22:04:47.443Z,1.60
2017-09-10T22:07:16.614Z,1.80
2017-09-10T22:09:45.576Z,1.50
2017-09-10T22:12:14.528Z,1.23
2017-09-10T22:14:43.496Z,1.77
2017-09-10T22:17:13.236Z,1.20
2017-09-10T22:19:42.247Z,1.20
2017-09-10T22:22:11.222Z,1.30
2017-09-10T22:24:40.189Z,1.40
2017-09-10T22:27:09.145Z,1.70
2017-09-10T22:29:38.509Z,1.40
2017-09-10T22:32:07.472Z,1.60
2017-09-10T22:34:37.209Z,1.50
2017-09-10T22:37:06.219Z,1.30
2017-09-10T22:39:35.626Z,1.60
2017-09-10T22:42:04.562Z,1.33
2017-09-10T22:44:33.544Z,1.70
2017-09-10T22:47:02.490Z,1.60
2017-09-10T22:49:31.445Z,1.00
2017-09-10T22:52:00.392Z,1.20
2017-09-10T22:54:29.362Z,1.40
2017-09-10T22:56:58.312Z,1.40
2017-09-10T22:59:28.061Z,1.33
2017-09-10T23:01:57.670Z,1.20
2017-09-10T23:04:26.794Z,1.50
2017-09-10T23:06:55.790Z,1.30
2017-09-10T23:09:24.744Z,1.43
2017-09-10T23:11:53.727Z,1.33
2017-09-10T23:14:22.800Z,1.70
2017-09-10T23:16:52.500Z,1.23
2017-09-10T23:19:22.246Z,1.43
2017-09-10T23:21:51.292Z,1.47
2017-09-10T23:24:21.041Z,1.20
2017-09-10T23:26:50.737Z,1.40
2017-09-10T23:29:19.712Z,1.77
2017-09-10T23:31:49.438Z,1.67
2017-09-10T23:34:18.391Z,1.63
2017-09-10T23:36:47.365Z,1.27
2017-09-10T23:39:16.723Z,1.30
2017-09-10T23:41:45.700Z,1.60
2017-09-10T23:44:15.045Z,1.37
2017-09-10T23:46:44.028Z,1.53
2017-09-10T23:49:13.764Z,1.40
2017-09-10T23:51:42.747Z,1.40
2017-09-10T23:54:11.700Z,1.70
2017-09-10T23:56:40.693Z,1.30
2017-09-10T23:59:09.668Z,1.57
